Penang International Airport Penang MY
ICAO: WMKP
IATA: PEN
Category: Medium
Scheduled Services: Yes

Elevation: 11 ft
TransAlt. 11000 ft.

Airport Communications:
ATIS:126.4
GND:121.6
:121.7

WMKP Zoom In..

If you have problems with the map follow the link
https://www.worldairports.se/pages/airport.php?
ICAO=WMKP

Runways:

(A) RW 04 length 10997 ft width 151 ft
ILS 109.90 / hdg 42

(B) RW 22 length 10997 ft width 151 ft
---- / hdg 222

Location; WMKP
Day. 05 / Time. 15.00 Zulu
* QNH: 1012
* Temperature: 28° c. 82.4°f.
* Wind from: 010° Speed 03 kn.
Dewpoint: 24° c.
Visibility: 10 km or more.
Clouds: Scattered 2500 ft.
No significant changes expected in the near future.

WMKP 051500Z 01003KT 9999 SCT025 28/24 Q1012 NOSIG


Wind From 010°
Speed 03 kn.

 
 
jpsmedia worldairports.se 2019   terms of use